sensor_id;sensor_type;location;lat;lon;timestamp;P1;durP1;ratioP1;P2;durP2;ratioP2
56860;SDS011;42744;51.094;3.490;2022-11-30T00:00:17;42.70;;;20.27;;
56860;SDS011;42744;51.094;3.490;2022-11-30T00:02:46;38.73;;;18.77;;
56860;SDS011;42744;51.094;3.490;2022-11-30T00:05:20;40.13;;;19.10;;
56860;SDS011;42744;51.094;3.490;2022-11-30T00:07:47;39.27;;;18.47;;
56860;SDS011;42744;51.094;3.490;2022-11-30T00:10:14;37.50;;;18.80;;
56860;SDS011;42744;51.094;3.490;2022-11-30T00:12:40;34.17;;;18.10;;
56860;SDS011;42744;51.094;3.490;2022-11-30T00:15:08;35.80;;;17.10;;
56860;SDS011;42744;51.094;3.490;2022-11-30T00:17:37;31.97;;;16.40;;
56860;SDS011;42744;51.094;3.490;2022-11-30T00:20:03;32.43;;;16.00;;
56860;SDS011;42744;51.094;3.490;2022-11-30T00:22:29;34.27;;;16.63;;
56860;SDS011;42744;51.094;3.490;2022-11-30T00:24:55;33.60;;;16.70;;
56860;SDS011;42744;51.094;3.490;2022-11-30T00:27:25;30.93;;;16.10;;
56860;SDS011;42744;51.094;3.490;2022-11-30T00:29:53;33.27;;;16.00;;
56860;SDS011;42744;51.094;3.490;2022-11-30T00:32:25;33.93;;;16.30;;
56860;SDS011;42744;51.094;3.490;2022-11-30T00:34:52;30.70;;;16.30;;
56860;SDS011;42744;51.094;3.490;2022-11-30T00:37:19;33.17;;;16.27;;
56860;SDS011;42744;51.094;3.490;2022-11-30T00:39:45;38.63;;;16.90;;
56860;SDS011;42744;51.094;3.490;2022-11-30T00:42:14;32.40;;;15.70;;
56860;SDS011;42744;51.094;3.490;2022-11-30T00:44:40;33.13;;;16.77;;
56860;SDS011;42744;51.094;3.490;2022-11-30T00:47:08;41.17;;;17.00;;
56860;SDS011;42744;51.094;3.490;2022-11-30T00:49:34;36.50;;;16.83;;
56860;SDS011;42744;51.094;3.490;2022-11-30T00:52:00;37.53;;;17.27;;
56860;SDS011;42744;51.094;3.490;2022-11-30T00:54:26;29.93;;;15.03;;
56860;SDS011;42744;51.094;3.490;2022-11-30T00:56:52;34.00;;;17.27;;
56860;SDS011;42744;51.094;3.490;2022-11-30T00:59:19;35.57;;;16.70;;
56860;SDS011;42744;51.094;3.490;2022-11-30T01:01:45;29.87;;;16.33;;
56860;SDS011;42744;51.094;3.490;2022-11-30T01:04:11;32.00;;;16.50;;
56860;SDS011;42744;51.094;3.490;2022-11-30T01:06:37;30.23;;;15.53;;
56860;SDS011;42744;51.094;3.490;2022-11-30T01:09:03;32.67;;;15.37;;
56860;SDS011;42744;51.094;3.490;2022-11-30T01:11:30;27.50;;;15.43;;
56860;SDS011;42744;51.094;3.490;2022-11-30T01:13:57;25.50;;;14.40;;
56860;SDS011;42744;51.094;3.490;2022-11-30T01:16:27;30.93;;;15.60;;
56860;SDS011;42744;51.094;3.490;2022-11-30T01:18:55;28.43;;;13.93;;
56860;SDS011;42744;51.094;3.490;2022-11-30T01:21:22;27.63;;;14.40;;
56860;SDS011;42744;51.094;3.490;2022-11-30T01:23:49;30.90;;;15.07;;
56860;SDS011;42744;51.094;3.490;2022-11-30T01:26:16;29.80;;;15.57;;
56860;SDS011;42744;51.094;3.490;2022-11-30T01:28:43;30.50;;;13.97;;
56860;SDS011;42744;51.094;3.490;2022-11-30T01:31:13;27.43;;;13.90;;
56860;SDS011;42744;51.094;3.490;2022-11-30T01:33:40;27.33;;;15.23;;
56860;SDS011;42744;51.094;3.490;2022-11-30T01:38:39;27.60;;;13.77;;
56860;SDS011;42744;51.094;3.490;2022-11-30T01:41:14;32.13;;;15.73;;
56860;SDS011;42744;51.094;3.490;2022-11-30T01:43:51;30.50;;;15.03;;
56860;SDS011;42744;51.094;3.490;2022-11-30T01:46:27;34.63;;;15.97;;
56860;SDS011;42744;51.094;3.490;2022-11-30T01:51:37;28.03;;;14.43;;
56860;SDS011;42744;51.094;3.490;2022-11-30T01:54:28;32.37;;;15.63;;
56860;SDS011;42744;51.094;3.490;2022-11-30T01:57:00;34.40;;;15.27;;
56860;SDS011;42744;51.094;3.490;2022-11-30T01:59:34;33.17;;;15.67;;
56860;SDS011;42744;51.094;3.490;2022-11-30T02:02:01;35.03;;;16.07;;
56860;SDS011;42744;51.094;3.490;2022-11-30T02:04:27;35.50;;;16.07;;
56860;SDS011;42744;51.094;3.490;2022-11-30T02:06:56;28.13;;;14.83;;
56860;SDS011;42744;51.094;3.490;2022-11-30T02:09:23;38.30;;;17.03;;
56860;SDS011;42744;51.094;3.490;2022-11-30T02:11:51;29.03;;;16.13;;
56860;SDS011;42744;51.094;3.490;2022-11-30T02:30:18;33.93;;;15.90;;
56860;SDS011;42744;51.094;3.490;2022-11-30T02:32:47;36.17;;;16.73;;
56860;SDS011;42744;51.094;3.490;2022-11-30T02:35:24;34.83;;;14.90;;
56860;SDS011;42744;51.094;3.490;2022-11-30T02:37:53;23.23;;;14.40;;
56860;SDS011;42744;51.094;3.490;2022-11-30T02:40:21;31.30;;;15.37;;
56860;SDS011;42744;51.094;3.490;2022-11-30T02:42:49;31.30;;;15.70;;
56860;SDS011;42744;51.094;3.490;2022-11-30T02:45:18;29.67;;;15.20;;
56860;SDS011;42744;51.094;3.490;2022-11-30T02:50:40;36.53;;;17.67;;
56860;SDS011;42744;51.094;3.490;2022-11-30T02:53:12;35.13;;;17.17;;
56860;SDS011;42744;51.094;3.490;2022-11-30T02:55:38;32.90;;;15.47;;
56860;SDS011;42744;51.094;3.490;2022-11-30T02:58:04;35.77;;;16.23;;
56860;SDS011;42744;51.094;3.490;2022-11-30T03:00:30;29.27;;;15.37;;
56860;SDS011;42744;51.094;3.490;2022-11-30T03:02:56;33.63;;;17.00;;
56860;SDS011;42744;51.094;3.490;2022-11-30T03:05:22;34.77;;;15.83;;
56860;SDS011;42744;51.094;3.490;2022-11-30T03:07:49;31.47;;;16.07;;
56860;SDS011;42744;51.094;3.490;2022-11-30T03:10:15;35.73;;;16.57;;
56860;SDS011;42744;51.094;3.490;2022-11-30T03:12:41;34.47;;;16.07;;
56860;SDS011;42744;51.094;3.490;2022-11-30T03:15:07;28.23;;;14.50;;
56860;SDS011;42744;51.094;3.490;2022-11-30T03:17:33;37.13;;;16.43;;
56860;SDS011;42744;51.094;3.490;2022-11-30T03:19:59;42.03;;;17.67;;
56860;SDS011;42744;51.094;3.490;2022-11-30T03:22:25;31.73;;;15.60;;
56860;SDS011;42744;51.094;3.490;2022-11-30T03:24:51;37.10;;;16.73;;
56860;SDS011;42744;51.094;3.490;2022-11-30T03:27:17;33.90;;;16.33;;
56860;SDS011;42744;51.094;3.490;2022-11-30T03:29:43;32.67;;;16.27;;
56860;SDS011;42744;51.094;3.490;2022-11-30T03:32:09;38.07;;;16.80;;
56860;SDS011;42744;51.094;3.490;2022-11-30T03:34:35;39.17;;;16.77;;
56860;SDS011;42744;51.094;3.490;2022-11-30T03:37:01;38.97;;;17.00;;
56860;SDS011;42744;51.094;3.490;2022-11-30T03:39:27;37.80;;;17.20;;
56860;SDS011;42744;51.094;3.490;2022-11-30T03:41:53;35.57;;;16.47;;
56860;SDS011;42744;51.094;3.490;2022-11-30T03:44:19;41.10;;;16.87;;
56860;SDS011;42744;51.094;3.490;2022-11-30T03:46:46;35.67;;;16.50;;
56860;SDS011;42744;51.094;3.490;2022-11-30T03:49:12;40.20;;;16.90;;
56860;SDS011;42744;51.094;3.490;2022-11-30T03:51:37;35.70;;;17.43;;
56860;SDS011;42744;51.094;3.490;2022-11-30T03:54:04;42.87;;;17.77;;
56860;SDS011;42744;51.094;3.490;2022-11-30T03:56:29;41.27;;;18.27;;
56860;SDS011;42744;51.094;3.490;2022-11-30T03:58:55;44.63;;;17.87;;
56860;SDS011;42744;51.094;3.490;2022-11-30T04:01:22;39.83;;;17.77;;
56860;SDS011;42744;51.094;3.490;2022-11-30T04:03:49;49.97;;;18.87;;
56860;SDS011;42744;51.094;3.490;2022-11-30T04:06:16;53.43;;;20.03;;
56860;SDS011;42744;51.094;3.490;2022-11-30T04:08:42;49.37;;;19.47;;
56860;SDS011;42744;51.094;3.490;2022-11-30T04:11:09;51.00;;;19.93;;
56860;SDS011;42744;51.094;3.490;2022-11-30T04:13:36;43.40;;;19.30;;
56860;SDS011;42744;51.094;3.490;2022-11-30T04:16:02;48.20;;;20.37;;
56860;SDS011;42744;51.094;3.490;2022-11-30T04:18:30;45.63;;;18.07;;
56860;SDS011;42744;51.094;3.490;2022-11-30T04:20:57;41.00;;;17.87;;
56860;SDS011;42744;51.094;3.490;2022-11-30T04:23:24;44.77;;;19.17;;
56860;SDS011;42744;51.094;3.490;2022-11-30T04:25:55;46.07;;;18.43;;
56860;SDS011;42744;51.094;3.490;2022-11-30T04:28:21;43.50;;;18.80;;
56860;SDS011;42744;51.094;3.490;2022-11-30T04:30:47;47.00;;;18.70;;
56860;SDS011;42744;51.094;3.490;2022-11-30T04:33:14;41.73;;;17.30;;
56860;SDS011;42744;51.094;3.490;2022-11-30T04:35:41;48.17;;;17.63;;
56860;SDS011;42744;51.094;3.490;2022-11-30T04:38:09;47.93;;;18.33;;
56860;SDS011;42744;51.094;3.490;2022-11-30T04:40:39;45.27;;;17.67;;
56860;SDS011;42744;51.094;3.490;2022-11-30T04:43:06;42.33;;;18.47;;
56860;SDS011;42744;51.094;3.490;2022-11-30T04:45:32;40.73;;;17.43;;
56860;SDS011;42744;51.094;3.490;2022-11-30T04:47:58;40.70;;;17.53;;
56860;SDS011;42744;51.094;3.490;2022-11-30T04:50:24;48.20;;;17.40;;
56860;SDS011;42744;51.094;3.490;2022-11-30T04:52:50;43.70;;;16.80;;
56860;SDS011;42744;51.094;3.490;2022-11-30T04:55:16;42.17;;;18.43;;
56860;SDS011;42744;51.094;3.490;2022-11-30T04:57:47;46.60;;;17.47;;
56860;SDS011;42744;51.094;3.490;2022-11-30T05:00:13;38.53;;;17.20;;
56860;SDS011;42744;51.094;3.490;2022-11-30T05:02:41;43.83;;;17.60;;
56860;SDS011;42744;51.094;3.490;2022-11-30T05:05:08;41.83;;;17.73;;
56860;SDS011;42744;51.094;3.490;2022-11-30T05:07:34;43.37;;;17.33;;
56860;SDS011;42744;51.094;3.490;2022-11-30T05:10:01;37.23;;;16.50;;
56860;SDS011;42744;51.094;3.490;2022-11-30T05:12:27;39.57;;;17.77;;
56860;SDS011;42744;51.094;3.490;2022-11-30T05:14:53;36.47;;;16.57;;
56860;SDS011;42744;51.094;3.490;2022-11-30T05:17:19;40.40;;;16.60;;
56860;SDS011;42744;51.094;3.490;2022-11-30T05:19:45;40.63;;;16.97;;
56860;SDS011;42744;51.094;3.490;2022-11-30T05:22:11;55.03;;;17.83;;
56860;SDS011;42744;51.094;3.490;2022-11-30T05:24:39;34.93;;;16.00;;
56860;SDS011;42744;51.094;3.490;2022-11-30T05:27:06;38.17;;;17.57;;
56860;SDS011;42744;51.094;3.490;2022-11-30T05:29:32;39.70;;;17.57;;
56860;SDS011;42744;51.094;3.490;2022-11-30T05:32:00;41.23;;;17.40;;
56860;SDS011;42744;51.094;3.490;2022-11-30T05:34:26;35.83;;;16.30;;
56860;SDS011;42744;51.094;3.490;2022-11-30T05:36:52;36.90;;;17.23;;
56860;SDS011;42744;51.094;3.490;2022-11-30T05:39:19;37.33;;;17.13;;
56860;SDS011;42744;51.094;3.490;2022-11-30T05:41:45;45.70;;;18.93;;
56860;SDS011;42744;51.094;3.490;2022-11-30T05:44:10;42.97;;;18.00;;
56860;SDS011;42744;51.094;3.490;2022-11-30T05:46:37;39.37;;;18.20;;
56860;SDS011;42744;51.094;3.490;2022-11-30T05:49:03;54.43;;;19.10;;
56860;SDS011;42744;51.094;3.490;2022-11-30T05:51:29;40.43;;;18.93;;
56860;SDS011;42744;51.094;3.490;2022-11-30T05:53:55;48.07;;;18.27;;
56860;SDS011;42744;51.094;3.490;2022-11-30T05:56:22;48.87;;;19.43;;
56860;SDS011;42744;51.094;3.490;2022-11-30T05:58:48;48.00;;;20.40;;
56860;SDS011;42744;51.094;3.490;2022-11-30T06:01:25;60.93;;;21.83;;
56860;SDS011;42744;51.094;3.490;2022-11-30T06:03:53;53.07;;;20.77;;
56860;SDS011;42744;51.094;3.490;2022-11-30T06:06:20;59.93;;;21.47;;
56860;SDS011;42744;51.094;3.490;2022-11-30T06:08:46;62.83;;;21.33;;
56860;SDS011;42744;51.094;3.490;2022-11-30T06:11:13;49.80;;;20.17;;
56860;SDS011;42744;51.094;3.490;2022-11-30T06:13:40;62.77;;;22.87;;
56860;SDS011;42744;51.094;3.490;2022-11-30T06:16:06;66.87;;;24.03;;
56860;SDS011;42744;51.094;3.490;2022-11-30T06:18:33;74.87;;;22.47;;
56860;SDS011;42744;51.094;3.490;2022-11-30T06:21:01;65.93;;;21.23;;
56860;SDS011;42744;51.094;3.490;2022-11-30T06:23:29;52.87;;;20.93;;
56860;SDS011;42744;51.094;3.490;2022-11-30T06:25:56;55.23;;;21.67;;
56860;SDS011;42744;51.094;3.490;2022-11-30T06:28:22;49.40;;;19.23;;
56860;SDS011;42744;51.094;3.490;2022-11-30T06:30:49;52.30;;;20.33;;
56860;SDS011;42744;51.094;3.490;2022-11-30T06:33:15;57.90;;;20.10;;
56860;SDS011;42744;51.094;3.490;2022-11-30T06:35:45;52.77;;;20.10;;
56860;SDS011;42744;51.094;3.490;2022-11-30T06:38:12;45.07;;;18.80;;
56860;SDS011;42744;51.094;3.490;2022-11-30T06:40:38;47.37;;;18.63;;
56860;SDS011;42744;51.094;3.490;2022-11-30T06:43:04;54.77;;;19.53;;
56860;SDS011;42744;51.094;3.490;2022-11-30T06:45:30;44.10;;;18.70;;
56860;SDS011;42744;51.094;3.490;2022-11-30T06:47:57;43.57;;;18.50;;
56860;SDS011;42744;51.094;3.490;2022-11-30T06:50:23;40.03;;;17.70;;
56860;SDS011;42744;51.094;3.490;2022-11-30T06:52:49;52.63;;;18.53;;
56860;SDS011;42744;51.094;3.490;2022-11-30T06:55:16;47.67;;;17.93;;
56860;SDS011;42744;51.094;3.490;2022-11-30T06:57:42;43.23;;;17.07;;
56860;SDS011;42744;51.094;3.490;2022-11-30T07:00:08;47.83;;;17.80;;
56860;SDS011;42744;51.094;3.490;2022-11-30T07:02:35;54.00;;;19.77;;
56860;SDS011;42744;51.094;3.490;2022-11-30T07:05:01;56.27;;;19.77;;
56860;SDS011;42744;51.094;3.490;2022-11-30T07:07:27;61.07;;;19.13;;
56860;SDS011;42744;51.094;3.490;2022-11-30T07:09:54;69.17;;;22.43;;
56860;SDS011;42744;51.094;3.490;2022-11-30T07:12:21;76.67;;;22.40;;
56860;SDS011;42744;51.094;3.490;2022-11-30T07:14:48;77.77;;;25.00;;
56860;SDS011;42744;51.094;3.490;2022-11-30T07:17:18;82.63;;;22.60;;
56860;SDS011;42744;51.094;3.490;2022-11-30T07:19:44;90.87;;;24.30;;
56860;SDS011;42744;51.094;3.490;2022-11-30T07:22:11;93.80;;;26.13;;
56860;SDS011;42744;51.094;3.490;2022-11-30T07:24:37;95.97;;;28.33;;
56860;SDS011;42744;51.094;3.490;2022-11-30T07:27:22;91.27;;;28.80;;
56860;SDS011;42744;51.094;3.490;2022-11-30T07:29:48;103.07;;;28.50;;
56860;SDS011;42744;51.094;3.490;2022-11-30T07:32:16;90.37;;;28.80;;
56860;SDS011;42744;51.094;3.490;2022-11-30T07:34:42;104.87;;;30.77;;
56860;SDS011;42744;51.094;3.490;2022-11-30T07:37:09;96.93;;;29.67;;
56860;SDS011;42744;51.094;3.490;2022-11-30T07:39:35;98.17;;;28.17;;
56860;SDS011;42744;51.094;3.490;2022-11-30T07:42:01;87.83;;;27.10;;
56860;SDS011;42744;51.094;3.490;2022-11-30T07:44:27;96.00;;;27.73;;
56860;SDS011;42744;51.094;3.490;2022-11-30T07:46:53;80.10;;;24.97;;
56860;SDS011;42744;51.094;3.490;2022-11-30T07:49:19;91.77;;;26.03;;
56860;SDS011;42744;51.094;3.490;2022-11-30T07:51:45;103.70;;;26.27;;
56860;SDS011;42744;51.094;3.490;2022-11-30T07:54:11;92.93;;;25.63;;
56860;SDS011;42744;51.094;3.490;2022-11-30T07:56:37;95.33;;;26.53;;
56860;SDS011;42744;51.094;3.490;2022-11-30T07:59:04;99.63;;;28.07;;
56860;SDS011;42744;51.094;3.490;2022-11-30T08:01:33;100.90;;;26.10;;
56860;SDS011;42744;51.094;3.490;2022-11-30T08:03:59;130.83;;;27.27;;
56860;SDS011;42744;51.094;3.490;2022-11-30T08:06:26;93.77;;;26.40;;
56860;SDS011;42744;51.094;3.490;2022-11-30T08:08:55;107.37;;;27.93;;
56860;SDS011;42744;51.094;3.490;2022-11-30T08:11:29;105.93;;;28.03;;
56860;SDS011;42744;51.094;3.490;2022-11-30T08:13:57;119.30;;;29.97;;
56860;SDS011;42744;51.094;3.490;2022-11-30T08:16:24;99.77;;;29.27;;
56860;SDS011;42744;51.094;3.490;2022-11-30T08:18:52;108.00;;;29.10;;
56860;SDS011;42744;51.094;3.490;2022-11-30T08:21:20;85.20;;;26.07;;
56860;SDS011;42744;51.094;3.490;2022-11-30T08:23:51;97.67;;;28.30;;
56860;SDS011;42744;51.094;3.490;2022-11-30T08:26:19;86.50;;;25.10;;
56860;SDS011;42744;51.094;3.490;2022-11-30T08:28:47;77.23;;;25.37;;
56860;SDS011;42744;51.094;3.490;2022-11-30T08:31:18;82.27;;;26.07;;
56860;SDS011;42744;51.094;3.490;2022-11-30T08:33:46;108.03;;;27.07;;
56860;SDS011;42744;51.094;3.490;2022-11-30T08:36:13;105.70;;;25.77;;
56860;SDS011;42744;51.094;3.490;2022-11-30T08:38:45;109.43;;;25.53;;
56860;SDS011;42744;51.094;3.490;2022-11-30T08:41:14;97.33;;;22.87;;
56860;SDS011;42744;51.094;3.490;2022-11-30T08:43:43;82.50;;;21.60;;
56860;SDS011;42744;51.094;3.490;2022-11-30T08:46:10;161.27;;;25.67;;
56860;SDS011;42744;51.094;3.490;2022-11-30T08:48:38;184.27;;;29.27;;
56860;SDS011;42744;51.094;3.490;2022-11-30T08:51:05;204.13;;;28.53;;
56860;SDS011;42744;51.094;3.490;2022-11-30T08:53:33;198.07;;;28.43;;
56860;SDS011;42744;51.094;3.490;2022-11-30T08:56:01;299.80;;;32.43;;
56860;SDS011;42744;51.094;3.490;2022-11-30T08:58:29;301.17;;;34.67;;
56860;SDS011;42744;51.094;3.490;2022-11-30T09:01:09;282.80;;;32.97;;
56860;SDS011;42744;51.094;3.490;2022-11-30T09:03:46;295.00;;;29.47;;
56860;SDS011;42744;51.094;3.490;2022-11-30T09:06:14;128.57;;;23.60;;
56860;SDS011;42744;51.094;3.490;2022-11-30T09:08:43;190.77;;;26.33;;
56860;SDS011;42744;51.094;3.490;2022-11-30T09:11:13;206.73;;;28.63;;
56860;SDS011;42744;51.094;3.490;2022-11-30T09:13:45;201.17;;;26.67;;
56860;SDS011;42744;51.094;3.490;2022-11-30T09:16:13;67.93;;;17.50;;
56860;SDS011;42744;51.094;3.490;2022-11-30T09:18:40;76.47;;;20.07;;
56860;SDS011;42744;51.094;3.490;2022-11-30T09:21:08;121.40;;;22.20;;
56860;SDS011;42744;51.094;3.490;2022-11-30T09:23:36;183.57;;;24.23;;
56860;SDS011;42744;51.094;3.490;2022-11-30T09:26:03;106.93;;;19.67;;
56860;SDS011;42744;51.094;3.490;2022-11-30T09:28:30;211.03;;;28.67;;
56860;SDS011;42744;51.094;3.490;2022-11-30T09:31:04;177.33;;;26.77;;
56860;SDS011;42744;51.094;3.490;2022-11-30T09:33:31;168.03;;;24.93;;
56860;SDS011;42744;51.094;3.490;2022-11-30T09:35:59;115.10;;;20.50;;
56860;SDS011;42744;51.094;3.490;2022-11-30T09:38:27;173.23;;;26.47;;
56860;SDS011;42744;51.094;3.490;2022-11-30T09:40:57;214.50;;;24.93;;
56860;SDS011;42744;51.094;3.490;2022-11-30T09:45:58;382.93;;;36.00;;
56860;SDS011;42744;51.094;3.490;2022-11-30T09:50:56;234.87;;;32.07;;
56860;SDS011;42744;51.094;3.490;2022-11-30T09:58:55;130.37;;;23.33;;
56860;SDS011;42744;51.094;3.490;2022-11-30T10:01:42;179.40;;;25.67;;
56860;SDS011;42744;51.094;3.490;2022-11-30T10:04:26;201.57;;;26.07;;
56860;SDS011;42744;51.094;3.490;2022-11-30T10:07:42;102.10;;;22.87;;
56860;SDS011;42744;51.094;3.490;2022-11-30T10:16:08;251.03;;;28.90;;
56860;SDS011;42744;51.094;3.490;2022-11-30T10:21:30;194.10;;;30.40;;
56860;SDS011;42744;51.094;3.490;2022-11-30T10:24:09;176.33;;;27.03;;
56860;SDS011;42744;51.094;3.490;2022-11-30T10:26:52;194.03;;;26.80;;
56860;SDS011;42744;51.094;3.490;2022-11-30T10:29:20;189.10;;;28.30;;
56860;SDS011;42744;51.094;3.490;2022-11-30T10:32:09;110.30;;;23.80;;
56860;SDS011;42744;51.094;3.490;2022-11-30T10:34:53;141.23;;;25.47;;
56860;SDS011;42744;51.094;3.490;2022-11-30T10:37:39;140.77;;;25.77;;
56860;SDS011;42744;51.094;3.490;2022-11-30T10:40:21;170.80;;;29.23;;
56860;SDS011;42744;51.094;3.490;2022-11-30T10:45:30;92.57;;;25.30;;
56860;SDS011;42744;51.094;3.490;2022-11-30T10:48:10;131.90;;;27.30;;
56860;SDS011;42744;51.094;3.490;2022-11-30T10:50:47;115.77;;;25.90;;
56860;SDS011;42744;51.094;3.490;2022-11-30T10:53:13;232.53;;;29.50;;
56860;SDS011;42744;51.094;3.490;2022-11-30T10:55:40;91.90;;;22.33;;
56860;SDS011;42744;51.094;3.490;2022-11-30T10:58:20;96.00;;;22.93;;
56860;SDS011;42744;51.094;3.490;2022-11-30T11:01:04;110.60;;;25.60;;
56860;SDS011;42744;51.094;3.490;2022-11-30T11:03:34;174.13;;;28.97;;
56860;SDS011;42744;51.094;3.490;2022-11-30T11:06:23;170.80;;;27.80;;
56860;SDS011;42744;51.094;3.490;2022-11-30T11:08:49;176.73;;;28.43;;
56860;SDS011;42744;51.094;3.490;2022-11-30T11:11:28;75.37;;;20.93;;
56860;SDS011;42744;51.094;3.490;2022-11-30T11:14:12;147.97;;;24.00;;
56860;SDS011;42744;51.094;3.490;2022-11-30T11:22:01;119.13;;;23.57;;
56860;SDS011;42744;51.094;3.490;2022-11-30T11:24:39;57.10;;;20.10;;
56860;SDS011;42744;51.094;3.490;2022-11-30T11:27:06;73.00;;;21.30;;
56860;SDS011;42744;51.094;3.490;2022-11-30T11:29:43;165.17;;;25.10;;
56860;SDS011;42744;51.094;3.490;2022-11-30T11:32:17;130.93;;;24.07;;
56860;SDS011;42744;51.094;3.490;2022-11-30T11:34:46;83.27;;;21.17;;
56860;SDS011;42744;51.094;3.490;2022-11-30T11:37:18;67.27;;;23.47;;
56860;SDS011;42744;51.094;3.490;2022-11-30T11:42:41;143.03;;;27.77;;
56860;SDS011;42744;51.094;3.490;2022-11-30T11:45:22;71.40;;;23.27;;
56860;SDS011;42744;51.094;3.490;2022-11-30T11:48:03;56.60;;;21.20;;
56860;SDS011;42744;51.094;3.490;2022-11-30T11:50:37;48.73;;;20.77;;
56860;SDS011;42744;51.094;3.490;2022-11-30T11:53:13;59.87;;;20.80;;
56860;SDS011;42744;51.094;3.490;2022-11-30T11:55:57;57.30;;;19.47;;
56860;SDS011;42744;51.094;3.490;2022-11-30T11:58:31;41.30;;;18.97;;
56860;SDS011;42744;51.094;3.490;2022-11-30T12:01:00;47.80;;;21.20;;
56860;SDS011;42744;51.094;3.490;2022-11-30T12:03:38;54.63;;;20.03;;
56860;SDS011;42744;51.094;3.490;2022-11-30T12:06:26;57.40;;;19.97;;
56860;SDS011;42744;51.094;3.490;2022-11-30T12:08:55;38.40;;;19.00;;
56860;SDS011;42744;51.094;3.490;2022-11-30T12:11:32;46.27;;;20.37;;
56860;SDS011;42744;51.094;3.490;2022-11-30T12:14:03;37.67;;;18.80;;
56860;SDS011;42744;51.094;3.490;2022-11-30T12:16:46;42.10;;;19.00;;
56860;SDS011;42744;51.094;3.490;2022-11-30T12:28:00;45.03;;;21.93;;
56860;SDS011;42744;51.094;3.490;2022-11-30T12:30:50;50.97;;;21.00;;
56860;SDS011;42744;51.094;3.490;2022-11-30T12:40:02;47.87;;;21.20;;
56860;SDS011;42744;51.094;3.490;2022-11-30T12:45:22;45.97;;;21.80;;
56860;SDS011;42744;51.094;3.490;2022-11-30T12:53:26;39.70;;;18.90;;
56860;SDS011;42744;51.094;3.490;2022-11-30T12:58:44;42.93;;;21.50;;
56860;SDS011;42744;51.094;3.490;2022-11-30T13:04:06;53.40;;;26.47;;
56860;SDS011;42744;51.094;3.490;2022-11-30T13:06:41;57.47;;;26.77;;
56860;SDS011;42744;51.094;3.490;2022-11-30T13:11:48;59.27;;;27.60;;
56860;SDS011;42744;51.094;3.490;2022-11-30T13:14:23;60.63;;;26.77;;
56860;SDS011;42744;51.094;3.490;2022-11-30T13:17:02;55.87;;;27.53;;
56860;SDS011;42744;51.094;3.490;2022-11-30T13:33:45;54.27;;;27.80;;
56860;SDS011;42744;51.094;3.490;2022-11-30T13:38:39;50.67;;;25.07;;
56860;SDS011;42744;51.094;3.490;2022-11-30T13:41:06;64.53;;;28.00;;
56860;SDS011;42744;51.094;3.490;2022-11-30T13:43:34;52.87;;;26.87;;
56860;SDS011;42744;51.094;3.490;2022-11-30T13:48:37;58.03;;;27.50;;
56860;SDS011;42744;51.094;3.490;2022-11-30T13:51:05;57.03;;;28.63;;
56860;SDS011;42744;51.094;3.490;2022-11-30T13:53:32;55.60;;;27.23;;
56860;SDS011;42744;51.094;3.490;2022-11-30T13:56:02;62.33;;;29.70;;
56860;SDS011;42744;51.094;3.490;2022-11-30T13:58:38;57.93;;;27.60;;
56860;SDS011;42744;51.094;3.490;2022-11-30T14:01:42;53.77;;;29.40;;
56860;SDS011;42744;51.094;3.490;2022-11-30T14:06:48;56.43;;;27.13;;
56860;SDS011;42744;51.094;3.490;2022-11-30T14:10:02;61.43;;;28.60;;
56860;SDS011;42744;51.094;3.490;2022-11-30T14:15:02;55.50;;;27.97;;
56860;SDS011;42744;51.094;3.490;2022-11-30T14:18:19;58.43;;;30.03;;
56860;SDS011;42744;51.094;3.490;2022-11-30T14:23:51;58.30;;;30.07;;
56860;SDS011;42744;51.094;3.490;2022-11-30T14:26:27;66.50;;;31.50;;
56860;SDS011;42744;51.094;3.490;2022-11-30T14:34:30;58.47;;;30.00;;
56860;SDS011;42744;51.094;3.490;2022-11-30T14:37:02;63.30;;;31.03;;
56860;SDS011;42744;51.094;3.490;2022-11-30T14:39:41;65.90;;;30.40;;
56860;SDS011;42744;51.094;3.490;2022-11-30T14:42:14;64.93;;;32.50;;
56860;SDS011;42744;51.094;3.490;2022-11-30T14:44:48;63.03;;;32.13;;
56860;SDS011;42744;51.094;3.490;2022-11-30T14:47:19;63.73;;;31.27;;
56860;SDS011;42744;51.094;3.490;2022-11-30T14:49:48;60.50;;;28.97;;
56860;SDS011;42744;51.094;3.490;2022-11-30T15:00:50;70.07;;;32.17;;
56860;SDS011;42744;51.094;3.490;2022-11-30T15:03:24;71.23;;;32.83;;
56860;SDS011;42744;51.094;3.490;2022-11-30T15:05:53;76.03;;;33.90;;
56860;SDS011;42744;51.094;3.490;2022-11-30T15:08:26;65.17;;;35.50;;
56860;SDS011;42744;51.094;3.490;2022-11-30T15:11:14;75.27;;;37.83;;
56860;SDS011;42744;51.094;3.490;2022-11-30T15:13:45;65.03;;;32.23;;
56860;SDS011;42744;51.094;3.490;2022-11-30T15:16:20;58.73;;;30.57;;
56860;SDS011;42744;51.094;3.490;2022-11-30T15:18:47;62.40;;;30.80;;
56860;SDS011;42744;51.094;3.490;2022-11-30T15:21:14;65.80;;;31.37;;
56860;SDS011;42744;51.094;3.490;2022-11-30T15:23:46;56.50;;;27.47;;
56860;SDS011;42744;51.094;3.490;2022-11-30T15:26:14;64.37;;;30.33;;
56860;SDS011;42744;51.094;3.490;2022-11-30T15:31:42;61.70;;;29.80;;
56860;SDS011;42744;51.094;3.490;2022-11-30T15:34:27;67.23;;;31.30;;
56860;SDS011;42744;51.094;3.490;2022-11-30T15:37:11;73.43;;;31.73;;
56860;SDS011;42744;51.094;3.490;2022-11-30T15:39:38;74.73;;;31.33;;
56860;SDS011;42744;51.094;3.490;2022-11-30T15:42:14;66.27;;;30.83;;
56860;SDS011;42744;51.094;3.490;2022-11-30T15:44:44;70.17;;;32.90;;
56860;SDS011;42744;51.094;3.490;2022-11-30T15:47:25;68.87;;;33.77;;
56860;SDS011;42744;51.094;3.490;2022-11-30T15:49:53;74.27;;;31.07;;
56860;SDS011;42744;51.094;3.490;2022-11-30T15:52:24;67.07;;;30.93;;
56860;SDS011;42744;51.094;3.490;2022-11-30T15:54:53;61.20;;;30.47;;
56860;SDS011;42744;51.094;3.490;2022-11-30T15:57:21;69.40;;;33.77;;
56860;SDS011;42744;51.094;3.490;2022-11-30T16:00:06;69.10;;;35.07;;
56860;SDS011;42744;51.094;3.490;2022-11-30T16:02:39;76.40;;;32.33;;
56860;SDS011;42744;51.094;3.490;2022-11-30T16:05:06;71.17;;;32.93;;
56860;SDS011;42744;51.094;3.490;2022-11-30T16:07:57;78.97;;;34.70;;
56860;SDS011;42744;51.094;3.490;2022-11-30T16:10:29;66.87;;;31.47;;
56860;SDS011;42744;51.094;3.490;2022-11-30T16:13:02;62.13;;;30.67;;
56860;SDS011;42744;51.094;3.490;2022-11-30T16:15:30;68.80;;;30.90;;
56860;SDS011;42744;51.094;3.490;2022-11-30T16:18:00;71.63;;;32.27;;
56860;SDS011;42744;51.094;3.490;2022-11-30T16:20:42;75.73;;;31.53;;
56860;SDS011;42744;51.094;3.490;2022-11-30T16:23:29;74.00;;;30.63;;
56860;SDS011;42744;51.094;3.490;2022-11-30T16:25:59;63.13;;;29.83;;
56860;SDS011;42744;51.094;3.490;2022-11-30T16:28:25;68.70;;;31.97;;
56860;SDS011;42744;51.094;3.490;2022-11-30T16:30:52;70.47;;;30.80;;
56860;SDS011;42744;51.094;3.490;2022-11-30T16:33:21;68.90;;;30.17;;
56860;SDS011;42744;51.094;3.490;2022-11-30T16:38:13;91.73;;;35.80;;
56860;SDS011;42744;51.094;3.490;2022-11-30T16:40:39;98.07;;;34.53;;
56860;SDS011;42744;51.094;3.490;2022-11-30T16:43:05;107.47;;;31.83;;
56860;SDS011;42744;51.094;3.490;2022-11-30T16:45:34;96.30;;;36.60;;
56860;SDS011;42744;51.094;3.490;2022-11-30T16:48:02;97.97;;;32.27;;